Time;durP1;ratioP1;P1;durP2;ratioP2;P2;SDS_P1;SDS_P2;PMS_P1;PMS_P2;Temp;Humidity;BMP_temperature;BMP_pressure;BME280_temperature;BME280_humidity;BME280_pressure;Samples;Min_cycle;Max_cycle;Signal;HPM_P1;HPM_P2
2021/01/30 00:02:01;;;;;;;20.35;7.75;;;9.20;99.90;;;;;;5046038;28;20416;-71
2021/01/30 00:04:26;;;;;;;16.77;7.75;;;9.20;99.90;;;;;;5047599;28;20488;-71
2021/01/30 00:06:53;;;;;;;18.83;9.27;;;9.10;99.90;;;;;;5022854;28;20075;-71
2021/01/30 00:09:21;;;;;;;17.80;8.45;;;9.20;99.90;;;;;;5042720;28;20167;-71
2021/01/30 00:11:48;;;;;;;21.80;9.30;;;9.20;99.90;;;;;;5048100;28;20087;-71
2021/01/30 00:14:18;;;;;;;18.35;9.15;;;9.20;99.90;;;;;;5035741;28;20032;-71
2021/01/30 00:16:44;;;;;;;19.40;9.20;;;9.20;99.90;;;;;;5046630;28;20037;-71
2021/01/30 00:19:09;;;;;;;20.13;9.05;;;9.20;99.90;;;;;;5049553;28;20037;-71
2021/01/30 00:21:35;;;;;;;21.10;9.73;;;9.20;99.90;;;;;;5043797;28;20033;-71
2021/01/30 00:24:01;;;;;;;21.90;10.07;;;9.20;99.90;;;;;;5044869;28;20080;-71
2021/01/30 00:26:26;;;;;;;21.98;9.60;;;9.20;99.90;;;;;;5046432;28;20041;-71
2021/01/30 00:28:52;;;;;;;27.15;11.45;;;9.20;99.90;;;;;;5049243;28;20026;-71
2021/01/30 00:31:17;;;;;;;26.13;10.88;;;9.30;99.90;;;;;;5043447;28;20052;-71
2021/01/30 00:33:43;;;;;;;23.95;10.13;;;9.30;99.90;;;;;;5026753;28;20017;-71
2021/01/30 00:36:09;;;;;;;23.95;9.98;;;9.30;99.90;;;;;;5049100;28;20831;-71
2021/01/30 00:38:34;;;;;;;18.05;10.38;;;9.30;99.90;;;;;;5048007;28;20044;-71
2021/01/30 00:41:00;;;;;;;16.63;10.15;;;9.20;99.90;;;;;;5040802;28;20036;-71
2021/01/30 00:43:26;;;;;;;17.70;8.73;;;9.20;99.90;;;;;;5045856;28;20393;-71
2021/01/30 00:45:51;;;;;;;21.40;9.05;;;9.00;99.90;;;;;;5030680;28;20029;-71
2021/01/30 00:48:17;;;;;;;16.88;7.97;;;9.00;99.90;;;;;;5043922;28;20033;-71
2021/01/30 00:50:43;;;;;;;17.92;8.38;;;9.00;99.90;;;;;;5047745;28;20025;-71
2021/01/30 00:53:09;;;;;;;18.10;7.78;;;9.00;99.90;;;;;;5041303;28;20068;-71
2021/01/30 00:55:34;;;;;;;13.13;6.72;;;9.00;99.90;;;;;;5045123;28;20538;-71
2021/01/30 00:58:00;;;;;;;14.70;6.43;;;8.90;99.90;;;;;;5021753;28;20033;-71
2021/01/30 01:00:27;;;;;;;13.73;7.07;;;9.00;99.90;;;;;;5039170;28;20116;-71
2021/01/30 01:02:53;;;;;;;11.95;6.38;;;9.00;99.90;;;;;;5029815;28;20501;-71
2021/01/30 01:05:20;;;;;;;11.43;4.95;;;8.90;99.90;;;;;;5045467;28;20488;-71
2021/01/30 01:07:46;;;;;;;14.48;6.35;;;8.90;99.90;;;;;;5042307;28;20037;-71
2021/01/30 01:10:14;;;;;;;11.65;5.80;;;8.90;99.90;;;;;;5046195;28;20029;-71
2021/01/30 01:12:40;;;;;;;17.17;7.10;;;8.80;99.90;;;;;;5046503;28;20037;-71
2021/01/30 01:15:07;;;;;;;16.77;6.88;;;8.90;99.90;;;;;;5049949;28;20074;-71
2021/01/30 01:17:33;;;;;;;8.02;5.25;;;8.80;99.90;;;;;;5039894;28;20025;-71
2021/01/30 01:19:59;;;;;;;15.40;4.93;;;8.70;99.90;;;;;;5039075;28;20443;-72
2021/01/30 01:22:24;;;;;;;13.88;5.60;;;8.60;99.90;;;;;;5042454;28;20037;-71
2021/01/30 01:24:50;;;;;;;11.90;5.30;;;8.50;99.90;;;;;;5047357;28;20030;-71
2021/01/30 01:27:16;;;;;;;7.95;4.65;;;8.40;99.90;;;;;;5048126;28;20025;-71
2021/01/30 01:29:41;;;;;;;16.65;6.75;;;8.30;99.90;;;;;;5046715;28;20025;-71
2021/01/30 01:32:07;;;;;;;22.85;14.05;;;8.10;99.90;;;;;;5036634;28;21447;-71
2021/01/30 01:34:32;;;;;;;27.52;14.50;;;7.90;99.90;;;;;;5045678;28;20057;-71
2021/01/30 01:37:05;;;;;;;25.48;14.45;;;7.60;99.90;;;;;;5044692;28;20862;-71
2021/01/30 01:39:34;;;;;;;31.33;16.35;;;7.40;99.90;;;;;;5042322;28;20049;-71
2021/01/30 01:42:22;;;;;;;32.65;16.02;;;7.20;99.90;;;;;;5044523;28;20080;-71
2021/01/30 01:44:49;;;;;;;34.45;16.83;;;7.10;99.90;;;;;;5041465;28;20029;-71
2021/01/30 01:47:37;;;;;;;32.17;16.55;;;7.10;99.90;;;;;;5045830;28;20029;-71
2021/01/30 01:50:31;;;;;;;28.05;15.15;;;7.00;99.90;;;;;;5043853;28;20032;-71
2021/01/30 01:53:09;;;;;;;20.45;13.07;;;6.70;99.90;;;;;;5032400;28;20049;-71
2021/01/30 01:55:37;;;;;;;25.08;13.77;;;6.70;99.90;;;;;;5022681;28;20021;-71
2021/01/30 01:58:04;;;;;;;24.10;15.57;;;6.70;99.90;;;;;;5046667;28;20587;-71
2021/01/30 02:00:30;;;;;;;24.30;14.13;;;6.60;99.90;;;;;;5029061;28;20451;-71
2021/01/30 02:02:57;;;;;;;37.83;15.38;;;6.70;99.90;;;;;;5042680;28;20052;-71
2021/01/30 02:05:38;;;;;;;32.50;16.83;;;6.70;99.90;;;;;;5043951;28;20029;-71
2021/01/30 02:08:06;;;;;;;30.27;15.75;;;6.60;99.90;;;;;;5045263;28;20025;-71
2021/01/30 02:10:42;;;;;;;28.77;15.05;;;6.60;99.90;;;;;;5045827;28;20033;-71
2021/01/30 02:13:22;;;;;;;28.85;16.90;;;6.60;99.90;;;;;;5044070;28;20047;-71
2021/01/30 02:15:52;;;;;;;24.08;13.68;;;6.60;99.90;;;;;;5049883;28;20027;-71
2021/01/30 02:18:24;;;;;;;23.08;14.25;;;6.60;99.90;;;;;;5052514;28;20177;-71
2021/01/30 02:20:59;;;;;;;21.37;13.33;;;6.50;99.90;;;;;;5045920;28;20030;-71
2021/01/30 02:23:38;;;;;;;27.52;14.45;;;6.40;99.90;;;;;;5047649;28;20424;-71
2021/01/30 02:26:46;;;;;;;19.70;12.65;;;6.30;99.90;;;;;;5043928;28;20052;-71
2021/01/30 02:29:42;;;;;;;18.23;11.27;;;6.20;99.90;;;;;;5050165;28;20484;-71
2021/01/30 02:32:27;;;;;;;20.60;11.30;;;6.20;99.90;;;;;;5049779;28;20481;-71
2021/01/30 02:34:58;;;;;;;19.27;12.15;;;6.20;99.90;;;;;;5048043;28;20029;-71
2021/01/30 02:37:36;;;;;;;16.90;10.65;;;6.10;99.90;;;;;;5049443;28;20099;-71
2021/01/30 02:40:08;;;;;;;18.83;10.60;;;6.10;99.90;;;;;;5048879;28;20028;-71
2021/01/30 02:42:42;;;;;;;15.93;10.20;;;6.00;99.90;;;;;;5033060;28;20046;-72
2021/01/30 02:45:18;;;;;;;17.30;10.63;;;5.90;99.90;;;;;;5049512;28;20526;-71
2021/01/30 02:47:52;;;;;;;14.02;10.05;;;6.00;99.90;;;;;;5043999;28;20493;-71
2021/01/30 02:50:31;;;;;;;12.82;9.60;;;6.00;99.90;;;;;;5046829;28;20025;-72
2021/01/30 02:53:00;;;;;;;12.27;9.27;;;6.00;99.90;;;;;;5045548;28;20025;-71
2021/01/30 02:55:26;;;;;;;15.95;9.75;;;6.00;99.90;;;;;;5052217;28;20021;-71
2021/01/30 02:57:54;;;;;;;17.00;10.52;;;6.00;99.90;;;;;;5047327;28;20053;-72
2021/01/30 03:00:24;;;;;;;14.20;9.32;;;6.00;99.90;;;;;;5049450;28;20051;-72
2021/01/30 03:02:49;;;;;;;12.73;9.13;;;5.90;99.90;;;;;;5048166;28;20037;-72
2021/01/30 03:05:16;;;;;;;17.58;9.50;;;5.90;99.90;;;;;;5048996;28;20036;-71
2021/01/30 03:08:03;;;;;;;15.20;8.43;;;5.80;99.90;;;;;;5047503;28;20036;-72
2021/01/30 03:10:32;;;;;;;11.05;8.10;;;5.70;99.90;;;;;;5033977;28;20029;-72
2021/01/30 03:13:12;;;;;;;14.43;7.75;;;5.60;99.90;;;;;;5046295;28;20033;-72
2021/01/30 03:15:44;;;;;;;11.07;7.68;;;5.50;99.90;;;;;;5028241;28;20022;-72
2021/01/30 03:18:13;;;;;;;12.07;8.55;;;5.40;99.90;;;;;;5049565;28;20043;-71
2021/01/30 03:20:42;;;;;;;15.23;7.95;;;5.40;99.90;;;;;;5046036;28;20040;-72
2021/01/30 03:23:12;;;;;;;12.13;7.47;;;5.30;99.90;;;;;;5044726;28;20091;-72
2021/01/30 03:25:39;;;;;;;10.50;7.57;;;5.30;99.90;;;;;;5032739;28;20025;-72
2021/01/30 03:28:05;;;;;;;11.70;7.75;;;5.50;99.90;;;;;;5049457;28;20033;-72
2021/01/30 03:30:32;;;;;;;10.35;7.53;;;5.50;99.90;;;;;;5045864;28;20028;-71
2021/01/30 03:32:58;;;;;;;9.95;7.40;;;5.50;99.90;;;;;;5045377;28;20528;-71
2021/01/30 03:35:24;;;;;;;8.68;6.60;;;5.50;99.90;;;;;;5030539;28;20459;-72
2021/01/30 03:37:49;;;;;;;11.75;7.53;;;5.40;99.90;;;;;;5044912;28;20053;-72
2021/01/30 03:40:18;;;;;;;9.43;7.90;;;5.40;99.90;;;;;;5029876;28;20075;-71
2021/01/30 03:42:44;;;;;;;10.48;7.45;;;5.40;99.90;;;;;;5048112;28;20482;-71
2021/01/30 03:45:14;;;;;;;14.43;7.45;;;5.30;99.90;;;;;;5051317;28;20076;-72
2021/01/30 03:47:39;;;;;;;12.68;7.63;;;5.20;99.90;;;;;;5047875;28;20074;-72
2021/01/30 03:50:07;;;;;;;11.43;8.10;;;5.10;99.90;;;;;;5049259;28;20028;-71
2021/01/30 03:52:33;;;;;;;10.52;8.00;;;5.10;99.90;;;;;;5050041;28;20037;-72
2021/01/30 03:54:59;;;;;;;12.88;8.55;;;5.20;99.90;;;;;;5043551;28;20084;-71
2021/01/30 03:57:25;;;;;;;13.07;8.98;;;5.20;99.90;;;;;;5041140;28;20025;-72
2021/01/30 03:59:50;;;;;;;11.18;9.02;;;5.10;99.90;;;;;;5049502;28;20021;-72
2021/01/30 04:02:17;;;;;;;13.88;10.63;;;5.00;99.90;;;;;;5041569;28;20052;-72
2021/01/30 04:04:47;;;;;;;15.80;11.40;;;5.10;99.90;;;;;;5026894;28;20021;-72
2021/01/30 04:07:13;;;;;;;17.08;11.60;;;5.10;99.90;;;;;;5031849;28;20100;-72
2021/01/30 04:09:39;;;;;;;14.70;11.30;;;5.20;99.90;;;;;;5049074;28;20385;-72
2021/01/30 04:12:06;;;;;;;14.48;11.13;;;5.20;99.90;;;;;;5045085;28;20163;-72
2021/01/30 04:14:32;;;;;;;18.65;11.30;;;5.10;99.90;;;;;;5041307;28;20036;-72
2021/01/30 04:16:58;;;;;;;14.57;12.02;;;5.10;99.90;;;;;;5048232;28;20579;-72
2021/01/30 04:19:24;;;;;;;16.10;13.02;;;5.10;99.90;;;;;;5048202;28;20021;-72
2021/01/30 04:21:49;;;;;;;21.38;13.77;;;5.00;99.90;;;;;;5046165;28;20107;-71
2021/01/30 04:24:15;;;;;;;17.95;13.57;;;4.90;99.90;;;;;;5043313;28;20157;-72
2021/01/30 04:26:44;;;;;;;19.63;14.27;;;5.10;99.90;;;;;;5043695;28;20021;-72
2021/01/30 04:29:10;;;;;;;23.30;14.93;;;5.10;99.90;;;;;;5045956;28;20071;-72
2021/01/30 04:31:35;;;;;;;20.23;14.82;;;4.90;99.90;;;;;;5028708;28;20390;-72
2021/01/30 04:34:01;;;;;;;21.50;15.35;;;4.80;99.90;;;;;;5036796;28;20029;-72
2021/01/30 04:36:27;;;;;;;21.73;14.90;;;4.90;99.90;;;;;;5043845;28;20100;-72
2021/01/30 04:38:53;;;;;;;21.98;15.38;;;4.90;99.90;;;;;;5042037;28;20118;-72
2021/01/30 04:41:28;;;;;;;23.63;15.73;;;4.70;99.90;;;;;;5042981;28;20098;-72
2021/01/30 04:44:03;;;;;;;24.48;16.23;;;4.80;99.90;;;;;;5029575;28;20517;-71
2021/01/30 04:46:50;;;;;;;25.73;17.08;;;4.70;99.90;;;;;;5037760;28;20560;-72
2021/01/30 04:49:32;;;;;;;26.77;17.58;;;4.60;99.90;;;;;;5027351;28;20021;-72
2021/01/30 04:52:09;;;;;;;25.88;17.98;;;4.50;99.90;;;;;;5029459;28;20429;-72
2021/01/30 04:54:45;;;;;;;26.98;18.77;;;4.60;99.90;;;;;;5036807;28;20021;-72
2021/01/30 04:57:45;;;;;;;26.63;18.48;;;4.70;99.90;;;;;;5044095;28;20024;-72
2021/01/30 05:00:32;;;;;;;28.38;19.27;;;4.70;99.90;;;;;;5042658;28;20017;-72
2021/01/30 05:03:17;;;;;;;33.28;20.00;;;4.70;99.90;;;;;;5051073;28;20096;-72
2021/01/30 05:05:46;;;;;;;31.17;19.67;;;4.60;99.90;;;;;;5042359;28;20025;-72
2021/01/30 05:08:24;;;;;;;34.83;22.45;;;4.60;99.90;;;;;;5027573;28;20087;-72
2021/01/30 05:11:02;;;;;;;43.53;26.30;;;4.50;99.90;;;;;;5046968;28;20033;-72
2021/01/30 05:13:30;;;;;;;43.40;26.30;;;4.40;99.90;;;;;;5045170;28;20107;-72
2021/01/30 05:16:01;;;;;;;43.45;26.15;;;4.30;99.90;;;;;;5049593;28;20029;-72
2021/01/30 05:18:34;;;;;;;43.40;25.45;;;4.10;99.90;;;;;;5043868;28;20032;-72
2021/01/30 05:21:06;;;;;;;45.42;26.90;;;4.20;99.90;;;;;;5041559;28;20061;-72
2021/01/30 05:23:35;;;;;;;45.20;27.20;;;4.10;99.90;;;;;;5044342;28;20086;-72
2021/01/30 05:26:27;;;;;;;47.13;28.13;;;4.20;99.90;;;;;;5050126;28;20167;-71
2021/01/30 05:29:02;;;;;;;44.60;26.58;;;4.10;99.90;;;;;;5050165;28;20025;-71
2021/01/30 05:31:44;;;;;;;46.55;26.73;;;4.00;99.90;;;;;;5042263;28;20115;-72
2021/01/30 05:34:29;;;;;;;44.00;24.48;;;4.00;99.90;;;;;;5043631;28;20018;-72
2021/01/30 05:37:06;;;;;;;39.08;23.65;;;4.20;99.90;;;;;;5049682;28;20429;-72
2021/01/30 05:39:50;;;;;;;37.33;23.35;;;4.10;99.90;;;;;;5043314;28;20021;-72
2021/01/30 05:42:35;;;;;;;37.38;23.00;;;4.10;99.90;;;;;;5030315;28;20041;-71
2021/01/30 05:45:19;;;;;;;33.90;20.88;;;4.10;99.90;;;;;;5031004;28;20397;-71
2021/01/30 05:47:50;;;;;;;34.40;21.38;;;4.00;99.90;;;;;;5049030;28;20020;-72
2021/01/30 05:50:36;;;;;;;32.50;20.88;;;4.00;99.90;;;;;;5046477;28;20060;-72
2021/01/30 05:53:04;;;;;;;34.85;21.00;;;4.00;99.90;;;;;;5050690;28;20045;-72
2021/01/30 05:55:36;;;;;;;34.70;21.55;;;3.90;99.90;;;;;;5055495;28;20053;-72
2021/01/30 05:58:12;;;;;;;30.08;19.90;;;3.80;99.90;;;;;;5035793;28;20028;-72
2021/01/30 06:00:38;;;;;;;30.48;20.23;;;3.80;99.90;;;;;;5049267;28;20028;-72
2021/01/30 06:03:09;;;;;;;36.22;22.80;;;3.60;99.90;;;;;;5048231;28;20031;-72
2021/01/30 06:05:44;;;;;;;36.40;24.05;;;3.60;99.90;;;;;;5030959;28;20420;-72
2021/01/30 06:08:18;;;;;;;34.83;22.10;;;3.70;99.90;;;;;;5052925;28;20021;-72
2021/01/30 06:10:44;;;;;;;35.45;22.25;;;3.80;99.90;;;;;;5047547;28;20592;-72
2021/01/30 06:13:19;;;;;;;34.38;21.55;;;3.70;99.90;;;;;;5047956;28;20028;-72
2021/01/30 06:15:48;;;;;;;33.83;21.67;;;3.70;99.90;;;;;;5050392;28;20040;-72
2021/01/30 06:18:44;;;;;;;32.03;20.95;;;3.70;99.90;;;;;;5046914;28;20051;-72
2021/01/30 06:21:20;;;;;;;34.30;20.92;;;3.60;99.90;;;;;;5050863;28;20049;-72
2021/01/30 06:24:06;;;;;;;32.50;20.40;;;3.60;99.90;;;;;;5051161;28;20043;-72
2021/01/30 06:26:38;;;;;;;31.02;19.33;;;3.70;99.90;;;;;;5049834;28;20044;-72
2021/01/30 06:29:14;;;;;;;30.40;19.30;;;3.60;99.90;;;;;;5045559;28;20662;-72
2021/01/30 06:31:41;;;;;;;32.80;20.60;;;3.50;99.90;;;;;;5047157;28;20036;-72
2021/01/30 06:34:33;;;;;;;31.38;19.88;;;3.60;99.90;;;;;;5044560;28;20204;-72
2021/01/30 06:37:09;;;;;;;33.92;20.40;;;3.50;99.90;;;;;;5050103;28;20498;-72
2021/01/30 06:39:40;;;;;;;30.30;19.02;;;3.50;99.90;;;;;;5046199;28;20020;-72
2021/01/30 06:42:29;;;;;;;34.42;21.20;;;3.50;99.90;;;;;;5050121;28;20055;-72
2021/01/30 06:45:05;;;;;;;31.38;20.00;;;3.50;99.90;;;;;;5051435;28;20025;-72
2021/01/30 06:47:31;;;;;;;33.78;20.17;;;3.20;99.90;;;;;;5046975;28;20044;-72
2021/01/30 06:49:57;;;;;;;33.50;20.40;;;3.40;99.90;;;;;;5047527;28;20378;-72
2021/01/30 06:52:30;;;;;;;30.55;19.00;;;3.20;99.90;;;;;;5051454;28;20043;-72
2021/01/30 06:55:04;;;;;;;32.40;20.05;;;3.40;99.90;;;;;;5042557;28;20023;-72
2021/01/30 06:57:36;;;;;;;30.02;19.20;;;3.50;99.90;;;;;;5048562;28;20040;-72
2021/01/30 07:00:23;;;;;;;32.88;20.23;;;3.60;99.90;;;;;;5051133;28;20025;-72
2021/01/30 07:03:02;;;;;;;34.95;21.42;;;3.40;99.90;;;;;;5041552;28;20028;-72
2021/01/30 07:05:43;;;;;;;35.88;21.77;;;3.40;99.90;;;;;;5050925;28;20071;-72
2021/01/30 07:08:37;;;;;;;31.95;19.73;;;3.50;99.90;;;;;;5049064;28;20021;-72
2021/01/30 07:11:26;;;;;;;31.60;19.70;;;3.50;99.90;;;;;;5041399;28;20049;-72
2021/01/30 07:14:11;;;;;;;35.42;20.50;;;3.40;99.90;;;;;;5047469;28;20478;-72
2021/01/30 07:16:54;;;;;;;36.80;21.67;;;3.50;99.90;;;;;;5051848;28;20047;-72
2021/01/30 07:19:50;;;;;;;33.58;20.83;;;3.50;99.90;;;;;;5051343;28;20091;-72
2021/01/30 07:22:43;;;;;;;34.28;21.27;;;3.40;99.90;;;;;;5021543;28;20025;-72
2021/01/30 07:25:21;;;;;;;33.50;20.45;;;3.20;99.90;;;;;;5049069;28;20021;-72
2021/01/30 07:27:54;;;;;;;39.08;22.88;;;3.20;99.90;;;;;;5050762;28;20025;-72
2021/01/30 07:30:46;;;;;;;38.22;21.92;;;3.30;99.90;;;;;;5046046;28;20029;-72
2021/01/30 07:33:29;;;;;;;33.38;21.20;;;3.20;99.90;;;;;;5044965;28;20076;-72
2021/01/30 07:36:08;;;;;;;36.40;21.83;;;3.20;99.90;;;;;;5049357;28;20023;-72
2021/01/30 07:38:47;;;;;;;33.80;21.20;;;3.10;99.90;;;;;;5047830;28;20044;-72
2021/01/30 07:41:35;;;;;;;34.83;21.05;;;3.20;99.90;;;;;;5031174;28;20497;-72
2021/01/30 07:44:10;;;;;;;35.33;20.67;;;3.10;99.90;;;;;;5045123;28;20029;-72
2021/01/30 07:46:40;;;;;;;37.75;22.48;;;3.20;99.90;;;;;;5044817;28;20021;-72
2021/01/30 07:49:27;;;;;;;36.70;21.92;;;3.10;99.90;;;;;;5047634;28;20065;-72
2021/01/30 07:52:05;;;;;;;37.22;22.10;;;3.00;99.90;;;;;;5049858;28;20037;-72
2021/01/30 07:54:31;;;;;;;36.72;21.67;;;3.00;99.90;;;;;;5046677;28;20024;-72
2021/01/30 07:57:08;;;;;;;37.75;22.60;;;3.00;99.90;;;;;;5047526;28;20078;-72
2021/01/30 08:00:04;;;;;;;40.17;24.27;;;3.00;99.90;;;;;;5047174;28;20913;-72
2021/01/30 08:03:21;;;;;;;42.97;25.65;;;2.90;99.90;;;;;;5046015;28;20485;-72
2021/01/30 08:06:08;;;;;;;41.08;24.90;;;3.00;99.90;;;;;;4971030;28;20039;-72
2021/01/30 08:08:55;;;;;;;38.92;20.80;;;3.00;99.90;;;;;;5043326;28;20036;-72
2021/01/30 08:11:29;;;;;;;41.88;23.63;;;3.10;99.90;;;;;;5046436;28;20179;-72
2021/01/30 08:14:19;;;;;;;44.22;24.67;;;3.00;99.90;;;;;;5049601;28;20397;-72
2021/01/30 08:17:05;;;;;;;42.38;23.90;;;3.20;99.90;;;;;;5048650;28;20448;-72
2021/01/30 08:19:45;;;;;;;44.78;24.35;;;3.30;99.90;;;;;;5041529;28;20025;-72
2021/01/30 08:22:49;;;;;;;43.40;24.98;;;3.30;99.90;;;;;;5047082;28;20033;-72
2021/01/30 08:25:37;;;;;;;43.85;23.85;;;3.20;99.90;;;;;;5025676;28;20497;-73
2021/01/30 08:28:24;;;;;;;39.88;23.45;;;3.00;99.90;;;;;;5044974;28;20044;-72
2021/01/30 08:30:52;;;;;;;45.97;24.50;;;3.10;99.90;;;;;;5047137;28;20037;-72
2021/01/30 08:33:19;;;;;;;46.75;25.80;;;3.00;99.90;;;;;;5044068;28;20082;-72
2021/01/30 08:35:55;;;;;;;46.72;27.58;;;3.10;99.90;;;;;;5046068;28;20117;-71
2021/01/30 08:38:21;;;;;;;46.60;26.15;;;3.10;99.90;;;;;;5045804;28;20051;-72
2021/01/30 08:40:49;;;;;;;49.53;27.77;;;3.00;99.90;;;;;;5047371;28;20482;-72
2021/01/30 08:43:21;;;;;;;47.85;27.45;;;3.10;99.90;;;;;;5051615;28;20025;-72
2021/01/30 08:45:46;;;;;;;50.15;27.45;;;3.20;99.90;;;;;;5047304;28;20029;-72
2021/01/30 08:48:32;;;;;;;51.10;28.27;;;3.20;99.90;;;;;;5039638;28;20075;-72
2021/01/30 08:50:59;;;;;;;55.10;29.67;;;3.30;99.90;;;;;;5048279;28;20037;-72
2021/01/30 08:53:24;;;;;;;52.10;29.23;;;3.30;99.90;;;;;;5045682;28;20400;-72
2021/01/30 08:55:57;;;;;;;48.20;28.20;;;3.20;99.90;;;;;;5045609;28;20037;-72
2021/01/30 08:58:32;;;;;;;;;;;3.20;99.90;;;;;;5042888;28;20588;-71
2021/01/30 09:00:58;;;;;;;48.60;26.05;;;3.30;99.90;;;;;;5045161;28;19909;-72
2021/01/30 09:03:39;;;;;;;50.15;28.42;;;3.30;99.90;;;;;;5027846;28;20371;-72
2021/01/30 09:06:07;;;;;;;47.83;28.33;;;3.20;99.90;;;;;;5045849;28;20032;-72
2021/01/30 09:08:42;;;;;;;52.42;29.83;;;3.30;99.90;;;;;;5042232;28;20110;-72
2021/01/30 09:11:35;;;;;;;51.38;29.15;;;3.10;99.90;;;;;;5046116;28;20120;-72
2021/01/30 09:14:14;;;;;;;45.95;26.70;;;3.10;99.90;;;;;;5025111;28;20037;-72
2021/01/30 09:17:19;;;;;;;52.75;29.42;;;3.20;99.90;;;;;;5044791;28;20043;-73
2021/01/30 09:20:11;;;;;;;44.70;26.70;;;3.10;99.90;;;;;;5043306;28;20371;-72
2021/01/30 09:22:57;;;;;;;46.80;27.00;;;3.00;99.90;;;;;;5043110;28;20031;-72
2021/01/30 09:25:33;;;;;;;45.33;26.65;;;3.10;99.90;;;;;;5050834;28;20029;-73
2021/01/30 09:28:04;;;;;;;43.15;27.55;;;3.10;99.90;;;;;;5048285;28;20032;-72
2021/01/30 09:30:37;;;;;;;44.38;26.55;;;3.20;99.90;;;;;;5032189;28;20712;-72
2021/01/30 09:33:16;;;;;;;42.65;26.13;;;3.30;99.90;;;;;;5047465;28;20119;-73
2021/01/30 09:35:43;;;;;;;41.67;26.45;;;3.10;99.90;;;;;;5050928;28;20103;-72
2021/01/30 09:38:23;;;;;;;39.60;24.48;;;3.20;99.90;;;;;;5031299;28;20028;-72
2021/01/30 09:41:04;;;;;;;44.30;24.13;;;3.10;99.90;;;;;;5054272;28;20024;-73
2021/01/30 09:43:29;;;;;;;36.55;24.73;;;3.00;99.90;;;;;;5045797;28;20114;-73
2021/01/30 09:45:55;;;;;;;39.40;23.92;;;3.00;99.90;;;;;;5048811;28;20029;-72
2021/01/30 09:48:20;;;;;;;35.40;23.27;;;3.00;99.90;;;;;;5047604;28;20017;-73
2021/01/30 09:50:57;;;;;;;41.95;24.65;;;3.00;99.90;;;;;;5048989;28;20116;-73
2021/01/30 09:53:39;;;;;;;35.90;22.20;;;3.00;99.90;;;;;;5047658;28;20056;-73
2021/01/30 09:56:10;;;;;;;37.28;22.80;;;2.90;99.90;;;;;;5046006;28;20032;-73
2021/01/30 09:58:37;;;;;;;38.22;24.20;;;3.00;99.90;;;;;;5044698;28;20032;-73
2021/01/30 10:01:23;;;;;;;35.53;21.35;;;3.00;99.90;;;;;;5047232;28;20032;-73
2021/01/30 10:03:49;;;;;;;35.55;22.30;;;3.00;99.90;;;;;;5047594;28;20474;-73
2021/01/30 10:06:26;;;;;;;36.33;22.90;;;3.10;99.90;;;;;;5049603;28;20042;-73
2021/01/30 10:08:52;;;;;;;37.00;23.35;;;3.20;99.90;;;;;;5046290;28;20025;-73
2021/01/30 10:11:20;;;;;;;37.72;23.33;;;3.30;99.90;;;;;;5047666;28;20031;-73
2021/01/30 10:13:50;;;;;;;35.65;22.55;;;3.20;99.90;;;;;;5045158;28;20033;-73
2021/01/30 10:16:21;;;;;;;33.72;21.67;;;3.30;99.90;;;;;;5050348;28;20040;-73
2021/01/30 10:18:55;;;;;;;37.30;22.50;;;3.30;99.90;;;;;;5045677;28;20020;-72
2021/01/30 10:21:36;;;;;;;34.40;22.65;;;3.40;99.90;;;;;;5044484;28;20055;-72
2021/01/30 10:24:19;;;;;;;31.48;21.08;;;3.30;99.90;;;;;;5050906;28;20039;-72
2021/01/30 10:26:46;;;;;;;31.73;20.60;;;3.20;99.90;;;;;;5033580;28;20027;-72
2021/01/30 10:29:17;;;;;;;31.27;20.25;;;3.30;99.90;;;;;;5047989;28;20026;-72
2021/01/30 10:32:00;;;;;;;34.58;22.10;;;3.20;99.90;;;;;;5049825;28;20029;-72
2021/01/30 10:34:31;;;;;;;30.33;20.80;;;3.30;99.90;;;;;;5044528;28;20021;-72
2021/01/30 10:36:56;;;;;;;30.23;19.65;;;3.40;99.90;;;;;;5051272;28;20039;-72
2021/01/30 10:39:24;;;;;;;28.73;19.63;;;3.20;99.90;;;;;;5051804;28;20622;-72
2021/01/30 10:41:52;;;;;;;27.75;19.35;;;3.20;99.90;;;;;;5043933;28;20059;-72
2021/01/30 10:44:26;;;;;;;30.85;20.48;;;3.10;99.90;;;;;;5047693;28;20096;-72
2021/01/30 10:46:57;;;;;;;32.13;21.30;;;3.20;99.90;;;;;;5048914;28;20087;-72
2021/01/30 10:49:32;;;;;;;31.33;20.55;;;3.30;99.90;;;;;;5051225;28;20363;-72
2021/01/30 10:52:03;;;;;;;32.33;20.35;;;3.40;99.90;;;;;;5050719;28;20121;-72
2021/01/30 10:54:31;;;;;;;23.65;17.10;;;3.60;99.90;;;;;;5050983;28;20041;-71
2021/01/30 10:57:06;;;;;;;26.10;17.73;;;3.50;99.90;;;;;;5050618;28;20029;-72
2021/01/30 10:59:56;;;;;;;26.23;18.90;;;3.40;99.90;;;;;;5049083;28;20025;-72
2021/01/30 11:02:57;;;;;;;22.65;16.98;;;3.40;99.90;;;;;;5048944;28;20028;-72
2021/01/30 11:05:27;;;;;;;22.40;16.70;;;3.40;99.90;;;;;;5034321;28;20120;-72
2021/01/30 11:08:00;;;;;;;21.40;15.95;;;3.40;99.90;;;;;;5046920;28;20021;-71
2021/01/30 11:10:26;;;;;;;22.67;15.80;;;3.40;99.90;;;;;;5042223;28;20473;-72
2021/01/30 11:12:53;;;;;;;20.05;14.27;;;3.40;99.90;;;;;;5029837;28;20056;-72
2021/01/30 11:15:23;;;;;;;18.83;14.27;;;3.30;99.90;;;;;;5032695;28;20075;-72
2021/01/30 11:17:50;;;;;;;19.42;13.90;;;3.30;99.90;;;;;;5042157;28;20029;-71
2021/01/30 11:20:44;;;;;;;17.80;13.23;;;3.40;99.90;;;;;;5047640;28;20055;-72
2021/01/30 11:23:11;;;;;;;17.23;13.02;;;3.50;99.90;;;;;;5044742;28;20033;-71
2021/01/30 11:25:41;;;;;;;17.77;12.77;;;3.40;99.90;;;;;;5049568;28;20115;-72
2021/01/30 11:28:08;;;;;;;17.10;13.23;;;3.50;99.90;;;;;;5052328;28;20048;-71
2021/01/30 11:30:34;;;;;;;17.02;12.27;;;3.60;99.90;;;;;;5044407;28;20021;-71
2021/01/30 11:33:14;;;;;;;14.10;11.18;;;3.60;99.90;;;;;;5047654;28;20044;-71
2021/01/30 11:35:43;;;;;;;16.58;12.25;;;3.70;99.90;;;;;;5048416;28;20308;-72
2021/01/30 11:38:18;;;;;;;14.45;10.70;;;3.70;99.90;;;;;;5048389;28;20115;-72
2021/01/30 11:40:45;;;;;;;14.00;10.10;;;3.50;99.90;;;;;;5043891;28;20111;-71
2021/01/30 11:43:11;;;;;;;13.55;10.48;;;3.40;99.90;;;;;;5047779;28;20025;-71
2021/01/30 11:45:37;;;;;;;12.82;10.35;;;3.40;99.90;;;;;;5044630;28;20036;-72
2021/01/30 11:48:03;;;;;;;12.68;10.15;;;3.50;99.90;;;;;;5045454;28;20025;-71
2021/01/30 11:50:29;;;;;;;12.10;10.73;;;3.60;99.90;;;;;;5047615;28;20111;-76
2021/01/30 11:53:15;;;;;;;12.75;9.77;;;3.70;99.90;;;;;;5045882;28;20115;-73
2021/01/30 11:55:41;;;;;;;13.25;9.48;;;3.70;99.90;;;;;;5048476;28;20033;-72
2021/01/30 11:58:08;;;;;;;12.73;10.27;;;3.70;99.90;;;;;;5049271;28;20025;-72
2021/01/30 12:00:34;;;;;;;11.98;9.63;;;3.70;99.90;;;;;;5028828;28;20452;-73
2021/01/30 12:03:00;;;;;;;15.48;9.75;;;3.80;99.90;;;;;;5025291;28;20121;-72
2021/01/30 12:05:26;;;;;;;12.27;10.25;;;3.80;99.90;;;;;;5028069;28;20053;-72
2021/01/30 12:07:52;;;;;;;12.10;9.25;;;3.80;99.90;;;;;;5042987;28;20518;-72
2021/01/30 12:10:18;;;;;;;11.38;9.85;;;3.90;99.90;;;;;;5046978;28;20036;-72
2021/01/30 12:12:45;;;;;;;18.45;11.00;;;4.00;99.90;;;;;;5044617;28;20385;-72
2021/01/30 12:15:11;;;;;;;11.70;9.00;;;4.20;99.90;;;;;;5040702;28;20033;-72
2021/01/30 12:17:41;;;;;;;15.25;11.73;;;4.00;99.90;;;;;;5044838;28;20033;-72
2021/01/30 12:20:20;;;;;;;11.02;9.80;;;4.10;99.90;;;;;;5039815;28;20042;-72
2021/01/30 12:22:47;;;;;;;12.35;9.35;;;4.00;99.90;;;;;;5045762;28;20020;-72
2021/01/30 12:25:14;;;;;;;12.73;9.93;;;4.20;99.90;;;;;;5048993;28;20115;-72
2021/01/30 12:27:51;;;;;;;14.48;9.75;;;4.20;99.90;;;;;;5043704;28;20018;-72
2021/01/30 12:30:18;;;;;;;11.65;9.15;;;4.20;99.90;;;;;;5048901;28;20090;-72
2021/01/30 12:32:44;;;;;;;11.05;9.48;;;4.30;99.90;;;;;;5046865;28;20056;-72
2021/01/30 12:35:11;;;;;;;11.40;9.93;;;4.20;99.90;;;;;;5027463;28;20052;-72
2021/01/30 12:37:37;;;;;;;11.90;9.60;;;4.20;99.90;;;;;;5047987;28;20017;-72
2021/01/30 12:40:04;;;;;;;11.52;9.32;;;4.10;99.90;;;;;;5044922;28;20039;-72
2021/01/30 12:42:30;;;;;;;10.50;9.20;;;4.20;99.90;;;;;;5046766;28;20442;-72
2021/01/30 12:44:55;;;;;;;12.07;8.73;;;4.10;99.90;;;;;;5047063;28;20417;-71
2021/01/30 12:47:28;;;;;;;11.88;9.85;;;4.20;99.90;;;;;;5045634;28;20055;-72
2021/01/30 12:49:55;;;;;;;12.43;10.27;;;4.20;99.90;;;;;;5049192;28;20072;-72
2021/01/30 12:52:20;;;;;;;11.50;9.70;;;4.10;99.90;;;;;;5043692;28;20044;-72
2021/01/30 12:54:46;;;;;;;14.50;10.68;;;4.20;99.90;;;;;;5049171;28;20021;-72
2021/01/30 12:57:11;;;;;;;12.70;9.68;;;4.30;99.90;;;;;;5045782;28;20056;-72
2021/01/30 12:59:37;;;;;;;11.65;9.13;;;4.30;99.90;;;;;;5045747;28;20024;-72
2021/01/30 13:02:03;;;;;;;16.77;9.43;;;4.20;99.90;;;;;;5049441;28;20026;-72
2021/01/30 13:04:29;;;;;;;13.82;9.80;;;4.10;99.90;;;;;;5046925;28;20021;-73
2021/01/30 13:06:55;;;;;;;11.73;9.50;;;4.10;99.90;;;;;;5042927;28;20044;-72
2021/01/30 13:09:21;;;;;;;13.82;9.98;;;4.00;99.90;;;;;;5045162;28;20029;-72
2021/01/30 13:11:48;;;;;;;12.02;9.30;;;4.20;99.90;;;;;;5051419;28;20044;-72